Latest Weather Observations for Nuriootpa

IDS60801

Issued at 8:05 pm CST Wednesday 27 August 2014 (issued every 30 minutes, with the page automatically refreshed every 10 minutes)

About weather observations | Map of weather stations | Latest weather observations for SA | Other Formats
Station Details ID: 023373 Name: NURIOOTPA VITICULTURAL Lat: -34.48 Lon: 139.01 Height: 275.0 m
Data from the previous 72 hours. | See also: Recent months at Nuriootpa
Date/Time
CST
Temp
°C
App
Temp
°C
Dew
Point
Rel
Hum
%
Delta-T
°C
Wind Press
QNH
hPa
Press
MSL
hPa
Rain
since 9 am
mm
Dir
 
Spd
km/h
Gust
km/h
Spd
kts
Gust
kts
27/08:00pm 9.2 8.4 6.6 84 1.2 NE 0 0 0 0 1027.9 1028.2 0.0
27/07:30pm 10.6 9.9 7.1 79 1.7 ENE 0 0 0 0 1027.5 1027.8 0.0
27/07:00pm 10.6 8.6 7.1 79 1.7 SE 7 13 4 7 1027.1 1027.4 0.0
27/06:30pm 12.9 11.1 7.2 68 2.8 ESE 6 9 3 5 1026.9 1027.2 0.0
27/06:00pm 14.6 13.9 6.9 60 3.8 CALM 0 0 0 0 1026.8 1027.1 0.0
27/05:30pm 17.4 16.4 5.8 46 5.7 CALM 0 0 0 0 1026.4 1026.7 0.0
27/05:00pm 18.3 15.2 3.7 38 7.0 NE 9 11 5 6 1026.2 1026.5 0.0
27/04:30pm 18.8 15.7 3.6 36 7.2 NE 9 13 5 7 1026.1 1026.4 0.0
27/04:00pm 18.4 15.4 3.9 38 6.9 ENE 9 13 5 7 1026.0 1026.3 0.0
27/03:30pm 18.3 15.6 5.5 43 6.3 E 9 15 5 8 1025.9 1026.2 0.0
27/03:00pm 19.1 16.6 4.7 38 7.0 NE 7 15 4 8 1025.9 1026.2 0.0
27/02:30pm 18.7 16.8 6.6 45 6.1 E 6 11 3 6 1026.2 1026.5 0.0
27/02:00pm 18.4 15.6 5.1 41 6.5 ENE 9 17 5 9 1026.2 1026.5 0.0
27/01:30pm 18.8 16.2 6.2 43 6.3 ENE 9 15 5 8 1026.3 1026.6 0.0
27/01:00pm 18.4 15.6 5.3 42 6.4 NNE 9 15 5 8 1026.6 1026.9 0.0
27/12:30pm 17.9 15.3 6.0 45 5.9 ENE 9 17 5 9 1027.1 1027.4 0.0
27/12:00pm 18.2 14.9 6.4 46 5.9 NE 13 19 7 10 1027.3 1027.6 0.0
27/11:30am 16.8 13.2 5.2 46 5.6 ENE 13 17 7 9 1027.7 1028.0 0.0
27/11:00am 16.5 12.9 5.0 46 5.5 NE 13 17 7 9 1027.8 1028.1 0.0
27/10:30am 16.4 13.1 6.5 52 4.9 ENE 13 20 7 11 1027.9 1028.2 0.0
27/10:00am 15.4 11.4 4.9 49 5.0 ENE 15 22 8 12 1027.8 1028.1 0.0
27/09:30am 14.9 10.7 5.5 53 4.5 ENE 17 22 9 12 1027.5 1027.8 0.0
27/09:00am 13.5 10.1 6.0 60 3.6 ENE 13 19 7 10 1027.5 1027.8 0.2
27/08:30am 10.6 8.1 6.6 76 1.9 NE 9 13 5 7 1027.5 1027.8 0.2
27/08:00am 7.5 5.0 4.8 83 1.2 NE 7 11 4 6 1027.5 1027.8 0.2
27/07:30am 4.3 2.5 3.3 93 0.4 NNE 2 7 1 4 1027.1 1027.4 0.2
27/07:00am 2.9 -0.5 2.1 94 0.3 NE 9 11 5 6 1026.9 1027.2 0.2
27/06:30am 2.2 -1.2 1.7 96 0.2 NE 9 11 5 6 1026.8 1027.1 0.2
27/06:00am 2.3 -0.6 1.5 94 0.3 NNE 6 7 3 4 1026.5 1026.8 0.2
27/05:30am 2.2 -0.9 1.4 94 0.3 NW 7 11 4 6 1026.1 1026.4 0.2
27/05:00am 2.9 -0.4 2.4 96 0.2 NNE 9 9 5 5 1025.5 1025.9 0.2
27/04:30am 2.9 0.1 2.1 94 0.3 N 6 7 3 4 1025.3 1025.7 0.2
27/04:00am 3.0 0.3 2.5 96 0.2 N 6 7 3 4 1025.1 1025.4 0.2
27/03:30am 2.6 -0.4 2.1 96 0.2 NNE 7 9 4 5 1025.2 1025.6 0.2
27/03:00am 3.8 0.1 2.6 92 0.5 NE 11 13 6 7 1025.2 1025.6 0.2
27/02:30am 3.3 0.0 2.6 95 0.3 NNE 9 9 5 5 1025.3 1025.7 0.2
27/02:00am 3.7 0.8 2.5 92 0.5 E 7 11 4 6 1025.3 1025.7 0.2
27/01:30am 4.2 1.3 2.7 90 0.6 ENE 7 11 4 6 1025.4 1025.8 0.2
27/01:00am 3.2 0.2 2.2 93 0.4 ENE 7 9 4 5 1025.5 1025.9 0.2
27/12:30am 4.3 0.7 3.1 92 0.5 NE 11 11 6 6 1025.4 1025.8 0.2
27/12:00am 4.6 2.0 3.2 91 0.6 NNE 6 6 3 3 1025.8 1026.1 0.2
 
Date/Time
CST
Temp
°C
App
Temp
°C
Dew
Point
Rel
Hum
%
Delta-T
°C
Wind Press
QNH
hPa
Press
MSL
hPa
Rain
since 9 am
mm
Dir
 
Spd
km/h
Gust
km/h
Spd
kts
Gust
kts
26/11:30pm 4.6 2.0 3.2 91 0.6 ENE 6 7 3 4 1025.8 1026.1 0.2
26/11:00pm 5.9 2.8 3.8 86 0.9 E 9 9 5 5 1025.8 1026.1 0.2
26/10:30pm 5.3 2.8 3.9 91 0.6 E 6 6 3 3 1026.0 1026.3 0.2
26/10:00pm 6.7 4.4 4.7 87 0.9 E 6 7 3 4 1026.0 1026.3 0.2
26/09:30pm 6.4 3.9 4.8 89 0.7 ENE 7 9 4 5 1025.9 1026.2 0.2
26/09:00pm 6.5 4.0 4.9 89 0.7 NE 7 9 4 5 1025.9 1026.2 0.2
26/08:30pm 6.9 4.7 5.3 89 0.7 E 6 6 3 3 1025.8 1026.1 0.2
26/08:00pm 7.8 6.0 5.6 86 1.0 E 4 6 2 3 1025.5 1025.9 0.2
26/07:30pm 9.0 6.7 5.5 79 1.6 E 7 7 4 4 1025.4 1025.8 0.2
26/07:00pm 9.4 7.1 5.7 78 1.7 E 7 9 4 5 1025.3 1025.7 0.2
26/06:30pm 11.0 9.7 6.1 72 2.3 E 2 6 1 3 1025.0 1025.3 0.2
26/06:00pm 13.1 11.0 5.7 61 3.5 E 6 7 3 4 1024.7 1025.0 0.2
26/05:30pm 15.0 12.2 5.1 51 4.7 E 9 11 5 6 1024.6 1024.9 0.2
26/05:00pm 15.8 12.9 4.9 48 5.2 ENE 9 13 5 7 1024.4 1024.7 0.2
26/04:30pm 15.9 13.0 4.8 47 5.3 E 9 15 5 8 1024.2 1024.5 0.2
26/04:00pm 16.3 13.8 4.5 45 5.6 ENE 7 13 4 7 1024.4 1024.7 0.2
26/03:30pm 16.0 12.8 4.9 47 5.3 E 11 17 6 9 1024.3 1024.6 0.2
26/03:00pm 16.1 13.9 6.1 51 4.9 E 7 13 4 7 1024.4 1024.7 0.2
26/02:30pm 16.3 13.6 5.8 50 5.1 NE 9 15 5 8 1024.6 1024.9 0.0
26/02:00pm 16.1 13.4 5.6 49 5.1 NNE 9 13 5 7 1024.8 1025.1 0.0
26/01:30pm 15.7 12.6 7.1 56 4.3 NNE 13 19 7 10 1025.1 1025.4 0.0
26/01:00pm 14.8 11.4 6.1 56 4.2 NNE 13 19 7 10 1025.4 1025.8 0.0
26/12:30pm 14.9 11.1 6.0 55 4.3 NE 15 20 8 11 1025.8 1026.1 0.0
26/12:00pm 14.1 10.3 5.7 57 4.0 NE 15 22 8 12 1026.2 1026.5 0.0
26/11:30am 13.5 9.3 5.7 59 3.7 NE 17 20 9 11 1026.6 1026.9 0.0
26/11:00am 13.6 10.5 7.3 65 3.1 NE 13 20 7 11 1027.0 1027.3 0.0
26/10:30am 12.4 9.0 7.5 72 2.4 NE 15 19 8 10 1027.4 1027.7 0.0
26/10:00am 11.7 8.3 7.6 76 2.0 NNE 15 20 8 11 1027.7 1028.0 0.0
26/09:30am 10.8 7.4 7.7 81 1.5 ENE 15 20 8 11 1027.9 1028.2 0.0
26/09:00am 10.0 6.1 7.3 83 1.3 ENE 17 22 9 12 1028.0 1028.3 0.0
26/08:30am 9.3 6.2 7.2 87 1.0 ENE 13 20 7 11 1027.7 1028.0 0.0
26/08:00am 8.6 5.4 6.9 89 0.8 ENE 13 19 7 10 1027.6 1027.9 0.0
26/07:30am 8.2 5.8 6.9 91 0.6 ENE 9 17 5 9 1027.5 1027.8 0.0
26/07:00am 7.3 4.5 6.9 97 0.2 E 11 19 6 10 1027.4 1027.7 0.0
26/06:30am 6.6 4.1 6.4 99 0.1 E 9 13 5 7 1027.0 1027.3 0.0
26/06:00am 6.4 3.7 5.7 95 0.3 ENE 9 13 5 7 1027.0 1027.3 0.0
26/05:30am 6.8 3.9 6.4 97 0.2 E 11 15 6 8 1026.8 1027.1 0.0
26/05:00am 6.8 4.3 6.6 99 0.1 ENE 9 13 5 7 1026.7 1027.0 0.0
26/04:30am 6.7 3.8 6.5 99 0.1 E 11 17 6 9 1026.5 1026.8 0.0
26/04:00am 6.9 4.1 6.9 100 0.0 E 11 19 6 10 1026.6 1026.9 0.0
26/03:30am 6.8 4.7 6.8 100 0.0 E 7 15 4 8 1026.6 1026.9 0.0
26/03:00am 7.1 4.7 7.1 100 0.0 E 9 13 5 7 1026.8 1027.1 0.0
26/02:30am 6.8 4.0 6.8 100 0.0 E 11 20 6 11 1027.0 1027.3 0.0
26/02:00am 6.4 3.1 6.2 99 0.1 ESE 13 24 7 13 1027.2 1027.5 0.0
26/01:30am 6.7 3.6 5.6 93 0.5 SE 11 17 6 9 1027.5 1027.8 0.0
26/01:00am 7.0 3.5 5.4 89 0.7 ESE 13 17 7 9 1027.5 1027.8 0.0
26/12:30am 7.0 3.8 5.2 88 0.8 SE 11 19 6 10 1027.9 1028.2 0.0
26/12:00am 6.9 4.4 4.9 87 0.9 ESE 7 13 4 7 1028.1 1028.4 0.0
 
Date/Time
CST
Temp
°C
App
Temp
°C
Dew
Point
Rel
Hum
%
Delta-T
°C
Wind Press
QNH
hPa
Press
MSL
hPa
Rain
since 9 am
mm
Dir
 
Spd
km/h
Gust
km/h
Spd
kts
Gust
kts
25/11:30pm 7.0 4.7 5.0 87 0.9 ENE 6 9 3 5 1028.2 1028.6 0.0
25/11:00pm 7.5 3.9 5.0 84 1.1 SE 13 22 7 12 1028.2 1028.6 0.0
25/10:30pm 7.7 3.8 5.2 84 1.1 SE 15 19 8 10 1028.3 1028.7 0.0
25/10:00pm 8.1 3.8 5.4 83 1.2 SE 17 22 9 12 1028.5 1028.9 0.0
25/09:30pm 8.1 3.9 5.7 85 1.1 SE 17 24 9 13 1028.9 1029.3 0.0
25/09:00pm 8.3 3.8 6.1 86 1.0 SE 19 28 10 15 1028.8 1029.2 0.0
25/08:30pm 8.7 3.7 6.3 85 1.1 SE 22 32 12 17 1028.8 1029.2 0.0
25/08:00pm 9.3 5.2 6.1 80 1.5 SE 17 24 9 13 1028.6 1029.0 0.0
25/07:30pm 9.9 5.8 6.0 77 1.8 SE 17 24 9 13 1028.3 1028.7 0.0
25/07:00pm 10.1 7.5 6.3 77 1.8 SE 9 15 5 8 1028.1 1028.4 0.0
25/06:30pm 10.7 9.6 6.9 77 1.8 E 2 7 1 4 1027.9 1028.2 0.0
25/06:00pm 12.4 10.4 7.0 69 2.6 ESE 7 9 4 5 1027.8 1028.1 0.0
25/05:30pm 15.0 12.9 5.6 53 4.5 SW 6 7 3 4 1027.5 1027.8 0.0
25/05:00pm 16.0 13.1 4.9 47 5.3 WSW 9 13 5 7 1027.4 1027.7 0.0
25/04:30pm 16.8 14.0 3.2 40 6.3 SW 7 11 4 6 1027.4 1027.7 0.0
25/04:00pm 16.6 13.5 3.5 41 6.1 WSW 9 13 5 7 1027.5 1027.8 0.0
25/03:30pm 16.8 14.3 3.8 42 6.1 SSW 6 13 3 7 1027.6 1027.9 0.0
25/03:00pm 16.3 15.0 3.9 43 5.8 CALM 0 0 0 0 1027.6 1027.9 0.0
25/02:30pm 15.9 13.2 3.6 44 5.7 SSW 7 11 4 6 1027.9 1028.2 0.0
25/02:00pm 15.6 14.0 4.6 48 5.2 NE 2 11 1 6 1028.1 1028.4 0.0
25/01:30pm 15.3 12.3 4.2 47 5.2 NNE 9 13 5 7 1028.5 1028.9 0.0
25/01:00pm 14.0 10.7 4.3 52 4.5 E 11 17 6 9 1029.0 1029.4 0.0
25/12:30pm 13.8 10.8 5.8 58 3.8 ENE 11 17 6 9 1029.7 1030.0 0.0
25/12:00pm 13.1 9.1 4.9 57 3.8 ENE 15 24 8 13 1030.2 1030.5 0.0
25/11:30am 12.6 9.2 5.8 63 3.2 E 13 19 7 10 1030.8 1031.1 0.0
25/11:00am 12.0 8.5 5.3 63 3.1 E 13 19 7 10 1031.2 1031.5 0.0
25/10:30am 11.2 7.3 5.4 67 2.7 E 15 22 8 12 1031.6 1032.0 0.0
25/10:00am 11.2 7.9 6.6 73 2.2 ENE 13 20 7 11 1031.8 1032.2 0.0
25/09:30am 10.7 7.9 6.9 77 1.8 ENE 11 15 6 8 1032.0 1032.4 0.0
25/09:00am 9.4 6.4 6.2 80 1.5 NE 11 17 6 9 1031.9 1032.3 0.0
25/08:30am 7.6 5.3 5.8 88 0.8 NE 7 9 4 5 1031.9 1032.3 0.0
25/08:00am 5.7 3.1 4.3 91 0.6 NE 7 9 4 5 1031.7 1032.1 0.0
25/07:30am 3.2 0.3 2.5 95 0.3 NE 7 9 4 5 1031.4 1031.8 0.0
25/07:00am 2.2 -1.2 1.7 96 0.2 NE 9 11 5 6 1031.2 1031.5 0.0
25/06:30am 2.2 -0.8 1.7 96 0.2 NNE 7 9 4 5 1030.9 1031.2 0.0
25/06:00am 2.5 -0.8 2.2 98 0.1 NE 9 11 5 6 1030.9 1031.2 0.0
25/05:30am 2.8 -0.5 2.5 98 0.1 NNE 9 11 5 6 1030.4 1030.7 0.0
25/05:00am 3.3 0.1 2.8 97 0.2 NE 9 11 5 6 1030.1 1030.4 0.0
25/04:30am 3.4 0.6 2.9 97 0.2 NE 7 9 4 5 1029.9 1030.2 0.0
25/04:00am 4.7 2.0 3.7 93 0.4 ENE 7 11 4 6 1029.9 1030.2 0.0
25/03:30am 6.1 3.6 4.7 91 0.6 E 7 13 4 7 1029.8 1030.1 0.0
25/03:00am 5.9 3.4 4.5 91 0.6 ESE 7 13 4 7 1029.7 1030.0 0.0
25/02:30am 6.2 2.9 4.8 91 0.6 ESE 11 17 6 9 1029.9 1030.2 0.0
25/02:00am 6.4 2.4 4.8 89 0.7 SE 15 20 8 11 1030.0 1030.3 0.0
25/01:30am 6.3 2.3 4.9 91 0.6 SE 15 19 8 10 1030.2 1030.5 0.0
25/01:00am 5.6 2.7 4.4 92 0.5 SE 9 13 5 7 1030.3 1030.6 0.0
25/12:30am 5.4 2.8 4.2 92 0.5 SE 7 11 4 6 1030.4 1030.7 0.0
25/12:00am 6.1 3.8 4.7 91 0.6 E 6 7 3 4 1030.4 1030.7 0.0
 
Date/Time
CST
Temp
°C
App
Temp
°C
Dew
Point
Rel
Hum
%
Delta-T
°C
Wind Press
QNH
hPa
Press
MSL
hPa
Rain
since 9 am
mm
Dir
 
Spd
km/h
Gust
km/h
Spd
kts
Gust
kts
24/11:30pm 5.4 3.4 4.5 94 0.4 ENE 4 7 2 4 1030.6 1030.9 0.0
24/11:00pm 4.4 3.1 3.9 97 0.2 CALM 0 0 0 0 1030.7 1031.0 0.0
24/10:30pm 4.7 3.4 4.2 97 0.2 CALM 0 0 0 0 1030.8 1031.1 0.0
24/10:00pm 5.3 4.1 4.4 94 0.4 CALM 0 0 0 0 1031.1 1031.4 0.0
24/09:30pm 5.9 4.4 5.0 94 0.4 SE 2 6 1 3 1031.0 1031.3 0.0
24/09:00pm 6.2 5.1 5.1 93 0.5 CALM 0 0 0 0 1030.8 1031.1 0.0
24/08:30pm 6.9 5.9 5.6 91 0.6 CALM 0 6 0 3 1030.9 1031.2 0.0

Other Formats:

Comma delimited format used in spreadsheet applications
http://www.bom.gov.au/fwo/IDS60801/IDS60801.94681.axf

JavaScript Object Notation format (JSON) in row-major order
http://www.bom.gov.au/fwo/IDS60801/IDS60801.94681.json